sensor_id;sensor_type;location;lat;lon;timestamp;temperature;humidity
79024;DHT22;70306;44.764;37.688;2023-08-12T00:00:26;26.47;72.19
79024;DHT22;70306;44.764;37.688;2023-08-12T00:01:27;26.47;72.69
79024;DHT22;70306;44.764;37.688;2023-08-12T00:02:29;26.45;72.36
79024;DHT22;70306;44.764;37.688;2023-08-12T00:03:40;26.47;72.55
79024;DHT22;70306;44.764;37.688;2023-08-12T00:04:44;26.42;72.70
79024;DHT22;70306;44.764;37.688;2023-08-12T00:05:46;26.42;72.47
79024;DHT22;70306;44.764;37.688;2023-08-12T00:06:48;26.40;72.71
79024;DHT22;70306;44.764;37.688;2023-08-12T00:07:50;26.40;72.77
79024;DHT22;70306;44.764;37.688;2023-08-12T00:08:52;26.41;72.53
79024;DHT22;70306;44.764;37.688;2023-08-12T00:09:53;26.38;72.20
79024;DHT22;70306;44.764;37.688;2023-08-12T00:10:57;26.37;71.87
79024;DHT22;70306;44.764;37.688;2023-08-12T00:11:59;26.32;71.66
79024;DHT22;70306;44.764;37.688;2023-08-12T00:13:01;26.24;71.64
79024;DHT22;70306;44.764;37.688;2023-08-12T00:14:03;26.20;72.32
79024;DHT22;70306;44.764;37.688;2023-08-12T00:15:05;26.17;72.32
79024;DHT22;70306;44.764;37.688;2023-08-12T00:16:08;26.18;72.63
79024;DHT22;70306;44.764;37.688;2023-08-12T00:17:10;26.18;73.09
79024;DHT22;70306;44.764;37.688;2023-08-12T00:18:11;26.21;73.05
79024;DHT22;70306;44.764;37.688;2023-08-12T00:19:13;26.25;73.28
79024;DHT22;70306;44.764;37.688;2023-08-12T00:20:16;26.25;72.99
79024;DHT22;70306;44.764;37.688;2023-08-12T00:21:18;26.27;72.74
79024;DHT22;70306;44.764;37.688;2023-08-12T00:22:20;26.21;72.79
79024;DHT22;70306;44.764;37.688;2023-08-12T00:23:24;26.20;72.09
79024;DHT22;70306;44.764;37.688;2023-08-12T00:24:26;26.18;72.70
79024;DHT22;70306;44.764;37.688;2023-08-12T00:25:27;26.18;71.67
79024;DHT22;70306;44.764;37.688;2023-08-12T00:26:29;26.14;72.20
79024;DHT22;70306;44.764;37.688;2023-08-12T00:27:38;26.13;72.97
79024;DHT22;70306;44.764;37.688;2023-08-12T00:28:40;26.10;73.77
79024;DHT22;70306;44.764;37.688;2023-08-12T00:29:41;26.16;73.61
79024;DHT22;70306;44.764;37.688;2023-08-12T00:30:47;26.16;73.52
79024;DHT22;70306;44.764;37.688;2023-08-12T00:31:49;26.18;73.32
79024;DHT22;70306;44.764;37.688;2023-08-12T00:32:50;26.18;73.57
79024;DHT22;70306;44.764;37.688;2023-08-12T00:33:52;26.17;74.17
79024;DHT22;70306;44.764;37.688;2023-08-12T00:34:54;26.20;74.54
79024;DHT22;70306;44.764;37.688;2023-08-12T00:35:55;26.23;74.76
79024;DHT22;70306;44.764;37.688;2023-08-12T00:36:58;26.24;74.79
79024;DHT22;70306;44.764;37.688;2023-08-12T00:38:00;26.23;74.53
79024;DHT22;70306;44.764;37.688;2023-08-12T00:39:02;26.25;73.86
79024;DHT22;70306;44.764;37.688;2023-08-12T00:40:05;26.24;73.29
79024;DHT22;70306;44.764;37.688;2023-08-12T00:41:07;26.18;73.21
79024;DHT22;70306;44.764;37.688;2023-08-12T00:42:09;26.17;73.67
79024;DHT22;70306;44.764;37.688;2023-08-12T00:43:12;26.23;73.83
79024;DHT22;70306;44.764;37.688;2023-08-12T00:44:14;26.17;73.60
79024;DHT22;70306;44.764;37.688;2023-08-12T00:45:16;26.20;74.29
79024;DHT22;70306;44.764;37.688;2023-08-12T00:46:18;26.18;73.74
79024;DHT22;70306;44.764;37.688;2023-08-12T00:47:20;26.17;73.94
79024;DHT22;70306;44.764;37.688;2023-08-12T00:48:22;26.18;73.90
79024;DHT22;70306;44.764;37.688;2023-08-12T00:49:27;26.20;73.66
79024;DHT22;70306;44.764;37.688;2023-08-12T00:50:29;26.21;73.55
79024;DHT22;70306;44.764;37.688;2023-08-12T00:51:32;26.18;73.10
79024;DHT22;70306;44.764;37.688;2023-08-12T00:52:33;26.17;73.37
79024;DHT22;70306;44.764;37.688;2023-08-12T00:53:36;26.16;73.33
79024;DHT22;70306;44.764;37.688;2023-08-12T00:54:40;26.13;73.13
79024;DHT22;70306;44.764;37.688;2023-08-12T00:55:42;26.08;73.15
79024;DHT22;70306;44.764;37.688;2023-08-12T00:56:45;26.06;73.26
79024;DHT22;70306;44.764;37.688;2023-08-12T00:57:47;26.04;73.16
79024;DHT22;70306;44.764;37.688;2023-08-12T00:58:48;26.03;73.42
79024;DHT22;70306;44.764;37.688;2023-08-12T00:59:50;26.03;73.18
79024;DHT22;70306;44.764;37.688;2023-08-12T01:00:52;26.04;73.28
79024;DHT22;70306;44.764;37.688;2023-08-12T01:01:54;26.03;73.82
79024;DHT22;70306;44.764;37.688;2023-08-12T01:02:56;26.04;73.95
79024;DHT22;70306;44.764;37.688;2023-08-12T01:03:58;26.06;73.71
79024;DHT22;70306;44.764;37.688;2023-08-12T01:05:00;26.06;73.35
79024;DHT22;70306;44.764;37.688;2023-08-12T01:06:01;26.08;73.57
79024;DHT22;70306;44.764;37.688;2023-08-12T01:07:04;26.06;73.27
79024;DHT22;70306;44.764;37.688;2023-08-12T01:08:06;26.03;72.85
79024;DHT22;70306;44.764;37.688;2023-08-12T01:09:08;26.03;73.66
79024;DHT22;70306;44.764;37.688;2023-08-12T01:10:11;26.00;73.33
79024;DHT22;70306;44.764;37.688;2023-08-12T01:12:55;25.94;74.05
79024;DHT22;70306;44.764;37.688;2023-08-12T01:15:12;25.97;73.54
79024;DHT22;70306;44.764;37.688;2023-08-12T01:16:17;26.01;74.02
79024;DHT22;70306;44.764;37.688;2023-08-12T01:17:21;26.04;74.05
79024;DHT22;70306;44.764;37.688;2023-08-12T01:18:24;26.03;74.22
79024;DHT22;70306;44.764;37.688;2023-08-12T01:20:33;26.04;73.98
79024;DHT22;70306;44.764;37.688;2023-08-12T01:21:36;26.04;74.39
79024;DHT22;70306;44.764;37.688;2023-08-12T01:23:13;26.01;72.79
79024;DHT22;70306;44.764;37.688;2023-08-12T01:24:15;26.01;74.12
79024;DHT22;70306;44.764;37.688;2023-08-12T01:25:17;26.06;74.16
79024;DHT22;70306;44.764;37.688;2023-08-12T01:26:19;26.07;73.68
79024;DHT22;70306;44.764;37.688;2023-08-12T01:27:21;26.04;74.32
79024;DHT22;70306;44.764;37.688;2023-08-12T01:28:22;26.03;73.94
79024;DHT22;70306;44.764;37.688;2023-08-12T01:29:25;26.00;74.49
79024;DHT22;70306;44.764;37.688;2023-08-12T01:30:27;26.01;74.51
79024;DHT22;70306;44.764;37.688;2023-08-12T01:31:43;25.97;74.91
79024;DHT22;70306;44.764;37.688;2023-08-12T01:32:53;25.99;74.83
79024;DHT22;70306;44.764;37.688;2023-08-12T01:34:02;25.97;75.13
79024;DHT22;70306;44.764;37.688;2023-08-12T01:35:28;25.99;75.72
79024;DHT22;70306;44.764;37.688;2023-08-12T01:36:33;26.00;75.54
79024;DHT22;70306;44.764;37.688;2023-08-12T01:37:37;26.04;75.21
79024;DHT22;70306;44.764;37.688;2023-08-12T01:38:39;26.07;75.88
79024;DHT22;70306;44.764;37.688;2023-08-12T01:39:45;26.07;75.17
79024;DHT22;70306;44.764;37.688;2023-08-12T01:40:49;26.03;75.25
79024;DHT22;70306;44.764;37.688;2023-08-12T01:41:51;26.01;75.71
79024;DHT22;70306;44.764;37.688;2023-08-12T01:42:54;26.01;75.26
79024;DHT22;70306;44.764;37.688;2023-08-12T01:43:55;25.99;75.60
79024;DHT22;70306;44.764;37.688;2023-08-12T01:44:57;25.90;75.34
79024;DHT22;70306;44.764;37.688;2023-08-12T01:46:00;25.83;75.12
79024;DHT22;70306;44.764;37.688;2023-08-12T01:47:02;25.79;75.09
79024;DHT22;70306;44.764;37.688;2023-08-12T01:48:04;25.79;75.25
79024;DHT22;70306;44.764;37.688;2023-08-12T01:49:06;25.78;75.25
79024;DHT22;70306;44.764;37.688;2023-08-12T01:50:08;25.76;75.16
79024;DHT22;70306;44.764;37.688;2023-08-12T01:51:11;25.72;75.26
79024;DHT22;70306;44.764;37.688;2023-08-12T01:52:13;25.75;75.48
79024;DHT22;70306;44.764;37.688;2023-08-12T01:53:15;25.75;75.02
79024;DHT22;70306;44.764;37.688;2023-08-12T01:54:17;25.71;74.90
79024;DHT22;70306;44.764;37.688;2023-08-12T01:55:18;25.75;74.80
79024;DHT22;70306;44.764;37.688;2023-08-12T01:56:20;25.69;75.17
79024;DHT22;70306;44.764;37.688;2023-08-12T01:57:22;25.72;75.21
79024;DHT22;70306;44.764;37.688;2023-08-12T01:58:24;25.75;75.11
79024;DHT22;70306;44.764;37.688;2023-08-12T01:59:27;25.68;74.81
79024;DHT22;70306;44.764;37.688;2023-08-12T02:00:29;25.72;75.01
79024;DHT22;70306;44.764;37.688;2023-08-12T02:01:30;25.68;74.91
79024;DHT22;70306;44.764;37.688;2023-08-12T02:02:32;25.66;75.18
79024;DHT22;70306;44.764;37.688;2023-08-12T02:03:36;25.69;75.29
79024;DHT22;70306;44.764;37.688;2023-08-12T02:04:39;25.66;74.90
79024;DHT22;70306;44.764;37.688;2023-08-12T02:05:41;25.62;75.04
79024;DHT22;70306;44.764;37.688;2023-08-12T02:06:43;25.63;75.22
79024;DHT22;70306;44.764;37.688;2023-08-12T02:07:44;25.58;75.19
79024;DHT22;70306;44.764;37.688;2023-08-12T02:08:46;25.63;75.82
79024;DHT22;70306;44.764;37.688;2023-08-12T02:09:48;25.65;75.55
79024;DHT22;70306;44.764;37.688;2023-08-12T02:10:50;25.61;75.54
79024;DHT22;70306;44.764;37.688;2023-08-12T02:11:51;25.57;75.64
79024;DHT22;70306;44.764;37.688;2023-08-12T02:12:54;25.58;75.84
79024;DHT22;70306;44.764;37.688;2023-08-12T02:13:55;25.58;75.87
79024;DHT22;70306;44.764;37.688;2023-08-12T02:14:57;25.59;75.35
79024;DHT22;70306;44.764;37.688;2023-08-12T02:15:59;25.59;75.62
79024;DHT22;70306;44.764;37.688;2023-08-12T02:17:00;25.55;76.27
79024;DHT22;70306;44.764;37.688;2023-08-12T02:18:02;25.61;75.75
79024;DHT22;70306;44.764;37.688;2023-08-12T02:19:04;25.61;75.63
79024;DHT22;70306;44.764;37.688;2023-08-12T02:20:07;25.62;76.26
79024;DHT22;70306;44.764;37.688;2023-08-12T02:21:10;25.63;76.49
79024;DHT22;70306;44.764;37.688;2023-08-12T02:22:31;25.63;75.31
79024;DHT22;70306;44.764;37.688;2023-08-12T02:23:33;25.59;75.37
79024;DHT22;70306;44.764;37.688;2023-08-12T02:24:35;25.55;76.68
79024;DHT22;70306;44.764;37.688;2023-08-12T02:25:39;25.57;76.15
79024;DHT22;70306;44.764;37.688;2023-08-12T02:26:41;25.59;76.63
79024;DHT22;70306;44.764;37.688;2023-08-12T02:27:43;25.62;76.01
79024;DHT22;70306;44.764;37.688;2023-08-12T02:28:45;25.62;76.03
79024;DHT22;70306;44.764;37.688;2023-08-12T02:29:46;25.62;75.90
79024;DHT22;70306;44.764;37.688;2023-08-12T02:30:48;25.63;76.11
79024;DHT22;70306;44.764;37.688;2023-08-12T02:31:50;25.62;75.88
79024;DHT22;70306;44.764;37.688;2023-08-12T02:32:56;25.62;76.18
79024;DHT22;70306;44.764;37.688;2023-08-12T02:33:59;25.61;76.36
79024;DHT22;70306;44.764;37.688;2023-08-12T02:35:00;25.63;75.91
79024;DHT22;70306;44.764;37.688;2023-08-12T02:36:02;25.59;76.57
79024;DHT22;70306;44.764;37.688;2023-08-12T02:37:04;25.62;75.41
79024;DHT22;70306;44.764;37.688;2023-08-12T02:38:06;25.58;75.84
79024;DHT22;70306;44.764;37.688;2023-08-12T02:39:07;25.59;76.75
79024;DHT22;70306;44.764;37.688;2023-08-12T02:40:16;25.66;76.58
79024;DHT22;70306;44.764;37.688;2023-08-12T02:41:22;25.63;76.37
79024;DHT22;70306;44.764;37.688;2023-08-12T02:42:24;25.66;75.83
79024;DHT22;70306;44.764;37.688;2023-08-12T02:43:26;25.65;76.54
79024;DHT22;70306;44.764;37.688;2023-08-12T02:44:28;25.65;76.13
79024;DHT22;70306;44.764;37.688;2023-08-12T02:45:30;25.69;76.77
79024;DHT22;70306;44.764;37.688;2023-08-12T02:46:32;25.72;76.42
79024;DHT22;70306;44.764;37.688;2023-08-12T02:47:33;25.69;75.74
79024;DHT22;70306;44.764;37.688;2023-08-12T02:48:36;25.73;76.52
79024;DHT22;70306;44.764;37.688;2023-08-12T02:49:38;25.76;76.64
79024;DHT22;70306;44.764;37.688;2023-08-12T02:50:40;25.76;75.72
79024;DHT22;70306;44.764;37.688;2023-08-12T02:51:42;25.73;75.32
79024;DHT22;70306;44.764;37.688;2023-08-12T02:52:43;25.71;75.39
79024;DHT22;70306;44.764;37.688;2023-08-12T02:53:45;25.58;75.00
79024;DHT22;70306;44.764;37.688;2023-08-12T02:54:47;25.52;75.39
79024;DHT22;70306;44.764;37.688;2023-08-12T02:55:49;25.54;76.46
79024;DHT22;70306;44.764;37.688;2023-08-12T02:56:51;25.59;75.74
79024;DHT22;70306;44.764;37.688;2023-08-12T02:57:55;25.57;75.68
79024;DHT22;70306;44.764;37.688;2023-08-12T02:58:57;25.59;75.49
79024;DHT22;70306;44.764;37.688;2023-08-12T02:59:59;25.59;75.86
79024;DHT22;70306;44.764;37.688;2023-08-12T03:01:01;25.65;76.04
79024;DHT22;70306;44.764;37.688;2023-08-12T03:02:05;25.66;75.95
79024;DHT22;70306;44.764;37.688;2023-08-12T03:03:06;25.68;75.36
79024;DHT22;70306;44.764;37.688;2023-08-12T03:04:08;25.68;74.48
79024;DHT22;70306;44.764;37.688;2023-08-12T03:05:10;25.62;74.55
79024;DHT22;70306;44.764;37.688;2023-08-12T03:06:11;25.61;75.41
79024;DHT22;70306;44.764;37.688;2023-08-12T03:07:13;25.63;74.54
79024;DHT22;70306;44.764;37.688;2023-08-12T03:08:15;25.66;74.52
79024;DHT22;70306;44.764;37.688;2023-08-12T03:09:18;25.69;75.29
79024;DHT22;70306;44.764;37.688;2023-08-12T03:10:21;25.69;74.75
79024;DHT22;70306;44.764;37.688;2023-08-12T03:11:23;25.62;74.24
79024;DHT22;70306;44.764;37.688;2023-08-12T03:12:24;25.58;74.33
79024;DHT22;70306;44.764;37.688;2023-08-12T03:13:27;25.59;74.83
79024;DHT22;70306;44.764;37.688;2023-08-12T03:14:49;25.59;75.10
79024;DHT22;70306;44.764;37.688;2023-08-12T03:15:51;25.54;74.46
79024;DHT22;70306;44.764;37.688;2023-08-12T03:16:53;25.48;75.25
79024;DHT22;70306;44.764;37.688;2023-08-12T03:17:56;25.46;74.80
79024;DHT22;70306;44.764;37.688;2023-08-12T03:18:58;25.52;75.02
79024;DHT22;70306;44.764;37.688;2023-08-12T03:20:00;25.55;74.65
79024;DHT22;70306;44.764;37.688;2023-08-12T03:21:07;25.61;75.40
79024;DHT22;70306;44.764;37.688;2023-08-12T03:22:09;25.63;75.21
79024;DHT22;70306;44.764;37.688;2023-08-12T03:23:14;25.68;74.49
79024;DHT22;70306;44.764;37.688;2023-08-12T03:24:39;25.69;74.28
79024;DHT22;70306;44.764;37.688;2023-08-12T03:25:40;25.69;74.41
79024;DHT22;70306;44.764;37.688;2023-08-12T03:26:43;25.68;74.00
79024;DHT22;70306;44.764;37.688;2023-08-12T03:27:44;25.68;74.80
79024;DHT22;70306;44.764;37.688;2023-08-12T03:28:46;25.68;74.34
79024;DHT22;70306;44.764;37.688;2023-08-12T03:29:52;25.71;74.26
79024;DHT22;70306;44.764;37.688;2023-08-12T03:30:53;25.71;74.58
79024;DHT22;70306;44.764;37.688;2023-08-12T03:31:58;25.72;74.29
79024;DHT22;70306;44.764;37.688;2023-08-12T03:33:00;25.76;74.40
79024;DHT22;70306;44.764;37.688;2023-08-12T03:34:05;25.82;74.09
79024;DHT22;70306;44.764;37.688;2023-08-12T03:35:08;25.79;74.10
79024;DHT22;70306;44.764;37.688;2023-08-12T03:36:10;25.73;74.08
79024;DHT22;70306;44.764;37.688;2023-08-12T03:37:12;25.73;74.09
79024;DHT22;70306;44.764;37.688;2023-08-12T03:38:14;25.72;73.98
79024;DHT22;70306;44.764;37.688;2023-08-12T03:39:16;25.65;74.12
79024;DHT22;70306;44.764;37.688;2023-08-12T03:40:18;25.66;74.32
79024;DHT22;70306;44.764;37.688;2023-08-12T03:41:20;25.71;74.88
79024;DHT22;70306;44.764;37.688;2023-08-12T03:42:21;25.71;74.13
79024;DHT22;70306;44.764;37.688;2023-08-12T03:43:24;25.66;74.27
79024;DHT22;70306;44.764;37.688;2023-08-12T03:44:26;25.59;74.22
79024;DHT22;70306;44.764;37.688;2023-08-12T03:45:28;25.58;74.33
79024;DHT22;70306;44.764;37.688;2023-08-12T03:46:30;25.61;74.74
79024;DHT22;70306;44.764;37.688;2023-08-12T03:47:32;25.62;74.36
79024;DHT22;70306;44.764;37.688;2023-08-12T03:48:34;25.58;74.33
79024;DHT22;70306;44.764;37.688;2023-08-12T03:49:37;25.59;74.59
79024;DHT22;70306;44.764;37.688;2023-08-12T03:50:40;25.55;74.41
79024;DHT22;70306;44.764;37.688;2023-08-12T03:51:43;25.61;75.08
79024;DHT22;70306;44.764;37.688;2023-08-12T03:52:44;25.63;74.22
79024;DHT22;70306;44.764;37.688;2023-08-12T03:53:46;25.61;74.48
79024;DHT22;70306;44.764;37.688;2023-08-12T03:54:48;25.66;74.87
79024;DHT22;70306;44.764;37.688;2023-08-12T03:55:52;25.71;74.15
79024;DHT22;70306;44.764;37.688;2023-08-12T03:56:54;25.69;74.21
79024;DHT22;70306;44.764;37.688;2023-08-12T03:57:58;25.72;74.31
79024;DHT22;70306;44.764;37.688;2023-08-12T03:59:00;25.76;74.15
79024;DHT22;70306;44.764;37.688;2023-08-12T04:00:02;25.82;73.87
79024;DHT22;70306;44.764;37.688;2023-08-12T04:01:15;25.78;73.79
79024;DHT22;70306;44.764;37.688;2023-08-12T04:02:17;25.82;73.77
79024;DHT22;70306;44.764;37.688;2023-08-12T04:03:19;25.85;73.85
79024;DHT22;70306;44.764;37.688;2023-08-12T04:04:21;25.88;73.65
79024;DHT22;70306;44.764;37.688;2023-08-12T04:05:23;25.90;73.93
79024;DHT22;70306;44.764;37.688;2023-08-12T04:06:24;25.90;73.41
79024;DHT22;70306;44.764;37.688;2023-08-12T04:07:26;25.79;73.62
79024;DHT22;70306;44.764;37.688;2023-08-12T04:08:28;25.80;73.92
79024;DHT22;70306;44.764;37.688;2023-08-12T04:09:29;25.83;73.57
79024;DHT22;70306;44.764;37.688;2023-08-12T04:10:31;25.86;73.81
79024;DHT22;70306;44.764;37.688;2023-08-12T04:11:33;25.89;73.83
79024;DHT22;70306;44.764;37.688;2023-08-12T04:12:34;25.96;73.41
79024;DHT22;70306;44.764;37.688;2023-08-12T04:13:36;25.97;73.38
79024;DHT22;70306;44.764;37.688;2023-08-12T04:14:38;25.99;73.22
79024;DHT22;70306;44.764;37.688;2023-08-12T04:15:42;26.00;73.05
79024;DHT22;70306;44.764;37.688;2023-08-12T04:16:44;26.07;72.84
79024;DHT22;70306;44.764;37.688;2023-08-12T04:17:46;26.08;72.47
79024;DHT22;70306;44.764;37.688;2023-08-12T04:18:47;26.04;72.45
79024;DHT22;70306;44.764;37.688;2023-08-12T04:19:49;26.03;72.42
79024;DHT22;70306;44.764;37.688;2023-08-12T04:20:52;25.93;72.87
79024;DHT22;70306;44.764;37.688;2023-08-12T04:21:54;25.92;73.01
79024;DHT22;70306;44.764;37.688;2023-08-12T04:22:55;25.92;73.36
79024;DHT22;70306;44.764;37.688;2023-08-12T04:23:57;25.88;73.00
79024;DHT22;70306;44.764;37.688;2023-08-12T04:24:59;25.75;73.36
79024;DHT22;70306;44.764;37.688;2023-08-12T04:26:01;25.72;73.55
79024;DHT22;70306;44.764;37.688;2023-08-12T04:27:03;25.69;73.92
79024;DHT22;70306;44.764;37.688;2023-08-12T04:28:05;25.76;73.74
79024;DHT22;70306;44.764;37.688;2023-08-12T04:29:09;25.80;73.64
79024;DHT22;70306;44.764;37.688;2023-08-12T04:30:14;25.75;73.62
79024;DHT22;70306;44.764;37.688;2023-08-12T04:31:15;25.76;73.78
79024;DHT22;70306;44.764;37.688;2023-08-12T04:32:18;25.85;73.73
79024;DHT22;70306;44.764;37.688;2023-08-12T04:33:20;25.86;73.10
79024;DHT22;70306;44.764;37.688;2023-08-12T04:34:22;25.85;73.17
79024;DHT22;70306;44.764;37.688;2023-08-12T04:35:26;25.83;73.45
79024;DHT22;70306;44.764;37.688;2023-08-12T04:36:29;25.79;73.54
79024;DHT22;70306;44.764;37.688;2023-08-12T04:37:33;25.76;73.20
79024;DHT22;70306;44.764;37.688;2023-08-12T04:38:35;25.80;73.17
79024;DHT22;70306;44.764;37.688;2023-08-12T04:39:40;25.73;72.99
79024;DHT22;70306;44.764;37.688;2023-08-12T04:40:43;25.68;73.47
79024;DHT22;70306;44.764;37.688;2023-08-12T04:41:44;25.65;73.64
79024;DHT22;70306;44.764;37.688;2023-08-12T04:42:46;25.65;73.52
79024;DHT22;70306;44.764;37.688;2023-08-12T04:43:48;25.71;73.52
79024;DHT22;70306;44.764;37.688;2023-08-12T04:44:50;25.61;73.69
79024;DHT22;70306;44.764;37.688;2023-08-12T04:45:52;25.54;73.70
79024;DHT22;70306;44.764;37.688;2023-08-12T04:46:55;25.52;73.90
79024;DHT22;70306;44.764;37.688;2023-08-12T04:47:57;25.61;73.78
79024;DHT22;70306;44.764;37.688;2023-08-12T04:48:59;25.59;73.61
79024;DHT22;70306;44.764;37.688;2023-08-12T04:50:01;25.65;73.58
79024;DHT22;70306;44.764;37.688;2023-08-12T04:51:06;25.55;73.66
79024;DHT22;70306;44.764;37.688;2023-08-12T04:52:09;25.65;73.75
79024;DHT22;70306;44.764;37.688;2023-08-12T04:53:11;25.69;73.22
79024;DHT22;70306;44.764;37.688;2023-08-12T04:54:13;25.63;73.34
79024;DHT22;70306;44.764;37.688;2023-08-12T04:55:15;25.65;73.58
79024;DHT22;70306;44.764;37.688;2023-08-12T04:56:18;25.71;73.42
79024;DHT22;70306;44.764;37.688;2023-08-12T04:57:20;25.75;73.73
79024;DHT22;70306;44.764;37.688;2023-08-12T04:58:22;25.78;72.84
79024;DHT22;70306;44.764;37.688;2023-08-12T04:59:25;25.75;73.04
79024;DHT22;70306;44.764;37.688;2023-08-12T05:00:27;25.78;72.70
79024;DHT22;70306;44.764;37.688;2023-08-12T05:01:29;25.83;72.57
79024;DHT22;70306;44.764;37.688;2023-08-12T05:02:31;25.89;72.50
79024;DHT22;70306;44.764;37.688;2023-08-12T05:03:32;25.92;72.15
79024;DHT22;70306;44.764;37.688;2023-08-12T05:04:35;25.99;72.14
79024;DHT22;70306;44.764;37.688;2023-08-12T05:05:36;25.97;72.28
79024;DHT22;70306;44.764;37.688;2023-08-12T05:06:38;26.07;71.02
79024;DHT22;70306;44.764;37.688;2023-08-12T05:07:40;26.10;70.99
79024;DHT22;70306;44.764;37.688;2023-08-12T05:08:41;26.18;70.74
79024;DHT22;70306;44.764;37.688;2023-08-12T05:09:43;26.21;70.57
79024;DHT22;70306;44.764;37.688;2023-08-12T05:10:47;26.25;70.37
79024;DHT22;70306;44.764;37.688;2023-08-12T05:11:50;26.27;70.14
79024;DHT22;70306;44.764;37.688;2023-08-12T05:12:52;26.27;70.57
79024;DHT22;70306;44.764;37.688;2023-08-12T05:13:55;26.27;70.73
79024;DHT22;70306;44.764;37.688;2023-08-12T05:14:57;26.34;70.56
79024;DHT22;70306;44.764;37.688;2023-08-12T05:15:59;26.35;70.02
79024;DHT22;70306;44.764;37.688;2023-08-12T05:17:01;26.37;70.67
79024;DHT22;70306;44.764;37.688;2023-08-12T05:18:03;26.44;70.11
79024;DHT22;70306;44.764;37.688;2023-08-12T05:19:04;26.53;69.18
79024;DHT22;70306;44.764;37.688;2023-08-12T05:20:07;26.59;69.36
79024;DHT22;70306;44.764;37.688;2023-08-12T05:21:09;26.63;69.05
79024;DHT22;70306;44.764;37.688;2023-08-12T05:22:11;26.69;69.12
79024;DHT22;70306;44.764;37.688;2023-08-12T05:23:13;26.68;68.68
79024;DHT22;70306;44.764;37.688;2023-08-12T05:24:14;26.72;68.33
79024;DHT22;70306;44.764;37.688;2023-08-12T05:25:17;26.72;68.28
79024;DHT22;70306;44.764;37.688;2023-08-12T05:26:19;26.75;67.32
79024;DHT22;70306;44.764;37.688;2023-08-12T05:27:22;26.69;67.44
79024;DHT22;70306;44.764;37.688;2023-08-12T05:28:23;26.63;67.87
79024;DHT22;70306;44.764;37.688;2023-08-12T05:29:25;26.65;67.34
79024;DHT22;70306;44.764;37.688;2023-08-12T05:30:27;26.65;67.08
79024;DHT22;70306;44.764;37.688;2023-08-12T05:31:29;26.69;66.96
79024;DHT22;70306;44.764;37.688;2023-08-12T05:32:31;26.69;67.02
79024;DHT22;70306;44.764;37.688;2023-08-12T05:33:32;26.75;67.05
79024;DHT22;70306;44.764;37.688;2023-08-12T05:34:37;26.78;66.93
79024;DHT22;70306;44.764;37.688;2023-08-12T05:35:39;26.86;67.13
79024;DHT22;70306;44.764;37.688;2023-08-12T05:36:40;26.93;66.38
79024;DHT22;70306;44.764;37.688;2023-08-12T05:37:42;27.00;66.78
79024;DHT22;70306;44.764;37.688;2023-08-12T05:38:44;27.13;65.96
79024;DHT22;70306;44.764;37.688;2023-08-12T05:39:45;27.18;65.38
79024;DHT22;70306;44.764;37.688;2023-08-12T05:40:47;27.20;64.64
79024;DHT22;70306;44.764;37.688;2023-08-12T05:41:49;27.24;64.48
79024;DHT22;70306;44.764;37.688;2023-08-12T05:42:50;27.33;64.39
79024;DHT22;70306;44.764;37.688;2023-08-12T05:43:52;27.41;64.12
79024;DHT22;70306;44.764;37.688;2023-08-12T05:44:54;27.48;64.26
79024;DHT22;70306;44.764;37.688;2023-08-12T05:45:55;27.63;63.05
79024;DHT22;70306;44.764;37.688;2023-08-12T05:46:57;27.66;63.25
79024;DHT22;70306;44.764;37.688;2023-08-12T05:48:01;27.65;63.21
79024;DHT22;70306;44.764;37.688;2023-08-12T05:49:03;27.65;63.35
79024;DHT22;70306;44.764;37.688;2023-08-12T05:50:05;27.74;62.67
79024;DHT22;70306;44.764;37.688;2023-08-12T05:51:08;27.80;62.33
79024;DHT22;70306;44.764;37.688;2023-08-12T05:52:09;27.82;62.39
79024;DHT22;70306;44.764;37.688;2023-08-12T05:53:11;27.90;62.24
79024;DHT22;70306;44.764;37.688;2023-08-12T05:54:13;27.85;61.86
79024;DHT22;70306;44.764;37.688;2023-08-12T05:55:14;27.83;62.25
79024;DHT22;70306;44.764;37.688;2023-08-12T05:56:16;27.76;62.46
79024;DHT22;70306;44.764;37.688;2023-08-12T05:57:21;27.79;62.46
79024;DHT22;70306;44.764;37.688;2023-08-12T05:58:22;27.79;61.88
79024;DHT22;70306;44.764;37.688;2023-08-12T05:59:24;27.86;61.91
79024;DHT22;70306;44.764;37.688;2023-08-12T06:00:26;27.99;61.64
79024;DHT22;70306;44.764;37.688;2023-08-12T06:01:27;27.99;61.47
79024;DHT22;70306;44.764;37.688;2023-08-12T06:02:29;28.07;61.79
79024;DHT22;70306;44.764;37.688;2023-08-12T06:03:31;28.13;61.03
79024;DHT22;70306;44.764;37.688;2023-08-12T06:04:32;28.07;61.19
79024;DHT22;70306;44.764;37.688;2023-08-12T06:05:34;28.10;61.22
79024;DHT22;70306;44.764;37.688;2023-08-12T06:06:36;28.21;61.59
79024;DHT22;70306;44.764;37.688;2023-08-12T06:07:37;28.29;60.58
79024;DHT22;70306;44.764;37.688;2023-08-12T06:08:39;28.37;59.48
79024;DHT22;70306;44.764;37.688;2023-08-12T06:09:41;28.41;57.91
79024;DHT22;70306;44.764;37.688;2023-08-12T06:10:43;28.35;58.49
79024;DHT22;70306;44.764;37.688;2023-08-12T06:11:45;28.37;59.17
79024;DHT22;70306;44.764;37.688;2023-08-12T06:12:46;28.44;59.36
79024;DHT22;70306;44.764;37.688;2023-08-12T06:13:48;28.45;59.75
79024;DHT22;70306;44.764;37.688;2023-08-12T06:14:50;28.49;59.43
79024;DHT22;70306;44.764;37.688;2023-08-12T06:15:51;28.59;60.18
79024;DHT22;70306;44.764;37.688;2023-08-12T06:16:53;28.68;59.60
79024;DHT22;70306;44.764;37.688;2023-08-12T06:17:55;28.76;59.37
79024;DHT22;70306;44.764;37.688;2023-08-12T06:18:56;28.72;58.97
79024;DHT22;70306;44.764;37.688;2023-08-12T06:19:58;28.63;59.42
79024;DHT22;70306;44.764;37.688;2023-08-12T06:21:00;28.60;59.80
79024;DHT22;70306;44.764;37.688;2023-08-12T06:22:02;28.70;59.70
79024;DHT22;70306;44.764;37.688;2023-08-12T06:23:04;28.75;59.83
79024;DHT22;70306;44.764;37.688;2023-08-12T06:24:06;28.84;59.37
79024;DHT22;70306;44.764;37.688;2023-08-12T06:25:08;28.92;58.50
79024;DHT22;70306;44.764;37.688;2023-08-12T06:26:09;29.00;58.96
79024;DHT22;70306;44.764;37.688;2023-08-12T06:27:11;29.04;58.26
79024;DHT22;70306;44.764;37.688;2023-08-12T06:28:13;29.17;57.69
79024;DHT22;70306;44.764;37.688;2023-08-12T06:29:14;29.25;58.00
79024;DHT22;70306;44.764;37.688;2023-08-12T06:30:16;29.32;58.07
79024;DHT22;70306;44.764;37.688;2023-08-12T06:31:18;29.28;56.71
79024;DHT22;70306;44.764;37.688;2023-08-12T06:32:19;29.25;56.70
79024;DHT22;70306;44.764;37.688;2023-08-12T06:33:21;29.27;57.18